sensor_id;sensor_type;location;lat;lon;timestamp;temperature;humidity
41220;DHT22;26951;47.338;9.196;2022-10-16T00:00:43;12.30;83.10
41220;DHT22;26951;47.338;9.196;2022-10-16T00:03:27;12.30;83.00
41220;DHT22;26951;47.338;9.196;2022-10-16T00:06:12;12.30;82.40
41220;DHT22;26951;47.338;9.196;2022-10-16T00:08:57;12.30;82.40
41220;DHT22;26951;47.338;9.196;2022-10-16T00:11:42;12.30;82.60
41220;DHT22;26951;47.338;9.196;2022-10-16T00:14:26;12.20;83.00
41220;DHT22;26951;47.338;9.196;2022-10-16T00:17:10;12.30;82.90
41220;DHT22;26951;47.338;9.196;2022-10-16T00:19:54;12.30;82.40
41220;DHT22;26951;47.338;9.196;2022-10-16T00:22:38;12.40;82.60
41220;DHT22;26951;47.338;9.196;2022-10-16T00:25:24;12.40;82.60
41220;DHT22;26951;47.338;9.196;2022-10-16T00:28:08;12.40;82.80
41220;DHT22;26951;47.338;9.196;2022-10-16T00:30:52;12.40;82.60
41220;DHT22;26951;47.338;9.196;2022-10-16T00:33:38;12.40;82.20
41220;DHT22;26951;47.338;9.196;2022-10-16T00:36:25;12.40;81.90
41220;DHT22;26951;47.338;9.196;2022-10-16T00:39:09;12.40;81.70
41220;DHT22;26951;47.338;9.196;2022-10-16T00:41:53;12.40;81.90
41220;DHT22;26951;47.338;9.196;2022-10-16T00:47:34;12.50;81.80
41220;DHT22;26951;47.338;9.196;2022-10-16T00:50:26;12.40;81.40
41220;DHT22;26951;47.338;9.196;2022-10-16T00:53:11;12.50;81.60
41220;DHT22;26951;47.338;9.196;2022-10-16T00:55:56;12.50;81.80
41220;DHT22;26951;47.338;9.196;2022-10-16T00:58:40;12.50;81.50
41220;DHT22;26951;47.338;9.196;2022-10-16T01:01:59;12.50;81.80
41220;DHT22;26951;47.338;9.196;2022-10-16T01:04:52;12.50;81.80
41220;DHT22;26951;47.338;9.196;2022-10-16T01:10:41;12.50;81.20
41220;DHT22;26951;47.338;9.196;2022-10-16T01:13:35;12.60;80.70
41220;DHT22;26951;47.338;9.196;2022-10-16T01:16:32;12.60;80.70
41220;DHT22;26951;47.338;9.196;2022-10-16T01:22:19;12.60;80.60
41220;DHT22;26951;47.338;9.196;2022-10-16T01:25:11;12.60;80.50
41220;DHT22;26951;47.338;9.196;2022-10-16T01:27:59;12.60;80.60
41220;DHT22;26951;47.338;9.196;2022-10-16T01:30:45;12.60;80.50
41220;DHT22;26951;47.338;9.196;2022-10-16T01:33:59;12.60;80.60
41220;DHT22;26951;47.338;9.196;2022-10-16T01:36:45;12.70;80.70
41220;DHT22;26951;47.338;9.196;2022-10-16T01:39:32;12.70;80.60
41220;DHT22;26951;47.338;9.196;2022-10-16T01:42:22;12.70;80.70
41220;DHT22;26951;47.338;9.196;2022-10-16T01:45:08;12.70;80.90
41220;DHT22;26951;47.338;9.196;2022-10-16T01:47:55;12.70;81.00
41220;DHT22;26951;47.338;9.196;2022-10-16T01:50:42;12.70;81.30
41220;DHT22;26951;47.338;9.196;2022-10-16T01:53:28;12.70;81.50
41220;DHT22;26951;47.338;9.196;2022-10-16T01:56:13;12.70;81.20
41220;DHT22;26951;47.338;9.196;2022-10-16T01:59:06;12.70;81.10
41220;DHT22;26951;47.338;9.196;2022-10-16T02:01:55;12.70;80.70
41220;DHT22;26951;47.338;9.196;2022-10-16T02:04:45;12.70;80.80
41220;DHT22;26951;47.338;9.196;2022-10-16T02:07:30;12.70;81.00
41220;DHT22;26951;47.338;9.196;2022-10-16T02:10:14;12.70;81.10
41220;DHT22;26951;47.338;9.196;2022-10-16T02:15:52;12.60;81.10
41220;DHT22;26951;47.338;9.196;2022-10-16T02:18:37;12.60;81.80
41220;DHT22;26951;47.338;9.196;2022-10-16T02:21:40;12.60;81.50
41220;DHT22;26951;47.338;9.196;2022-10-16T02:24:43;12.60;81.80
41220;DHT22;26951;47.338;9.196;2022-10-16T02:30:27;12.60;80.50
41220;DHT22;26951;47.338;9.196;2022-10-16T02:33:13;12.50;79.80
41220;DHT22;26951;47.338;9.196;2022-10-16T02:35:59;12.50;79.40
41220;DHT22;26951;47.338;9.196;2022-10-16T02:38:43;12.50;79.30
41220;DHT22;26951;47.338;9.196;2022-10-16T02:41:27;12.50;78.40
41220;DHT22;26951;47.338;9.196;2022-10-16T02:44:12;12.50;78.10
41220;DHT22;26951;47.338;9.196;2022-10-16T02:46:56;12.40;77.60
41220;DHT22;26951;47.338;9.196;2022-10-16T02:49:40;12.40;76.90
41220;DHT22;26951;47.338;9.196;2022-10-16T02:52:24;12.40;77.10
41220;DHT22;26951;47.338;9.196;2022-10-16T02:55:09;12.30;76.90
41220;DHT22;26951;47.338;9.196;2022-10-16T02:57:53;12.30;76.80
41220;DHT22;26951;47.338;9.196;2022-10-16T03:00:38;12.30;76.60
41220;DHT22;26951;47.338;9.196;2022-10-16T03:03:22;12.20;75.60
41220;DHT22;26951;47.338;9.196;2022-10-16T03:06:06;12.10;74.30
41220;DHT22;26951;47.338;9.196;2022-10-16T03:08:50;12.00;73.40
41220;DHT22;26951;47.338;9.196;2022-10-16T03:11:34;11.90;73.00
41220;DHT22;26951;47.338;9.196;2022-10-16T03:14:18;11.90;73.80
41220;DHT22;26951;47.338;9.196;2022-10-16T03:17:02;11.80;73.20
41220;DHT22;26951;47.338;9.196;2022-10-16T03:19:46;11.80;72.90
41220;DHT22;26951;47.338;9.196;2022-10-16T03:22:31;11.70;73.30
41220;DHT22;26951;47.338;9.196;2022-10-16T03:25:15;11.70;73.60
41220;DHT22;26951;47.338;9.196;2022-10-16T03:27:59;11.60;72.80
41220;DHT22;26951;47.338;9.196;2022-10-16T03:30:44;11.60;72.80
41220;DHT22;26951;47.338;9.196;2022-10-16T03:33:28;11.50;74.00
41220;DHT22;26951;47.338;9.196;2022-10-16T03:36:12;11.50;73.80
41220;DHT22;26951;47.338;9.196;2022-10-16T03:38:57;11.40;73.60
41220;DHT22;26951;47.338;9.196;2022-10-16T03:41:41;11.30;73.40
41220;DHT22;26951;47.338;9.196;2022-10-16T03:44:25;11.30;73.50
41220;DHT22;26951;47.338;9.196;2022-10-16T03:47:09;11.30;74.00
41220;DHT22;26951;47.338;9.196;2022-10-16T03:49:53;11.30;73.00
41220;DHT22;26951;47.338;9.196;2022-10-16T03:52:37;11.20;72.40
41220;DHT22;26951;47.338;9.196;2022-10-16T03:55:21;11.10;73.50
41220;DHT22;26951;47.338;9.196;2022-10-16T03:58:05;11.10;74.20
41220;DHT22;26951;47.338;9.196;2022-10-16T04:00:50;11.10;74.70
41220;DHT22;26951;47.338;9.196;2022-10-16T04:03:34;11.00;74.70
41220;DHT22;26951;47.338;9.196;2022-10-16T04:06:18;11.00;75.10
41220;DHT22;26951;47.338;9.196;2022-10-16T04:09:02;11.00;74.60
41220;DHT22;26951;47.338;9.196;2022-10-16T04:11:47;11.00;74.80
41220;DHT22;26951;47.338;9.196;2022-10-16T04:14:30;11.00;74.90
41220;DHT22;26951;47.338;9.196;2022-10-16T04:17:15;11.00;74.20
41220;DHT22;26951;47.338;9.196;2022-10-16T04:19:59;11.00;74.20
41220;DHT22;26951;47.338;9.196;2022-10-16T04:22:44;11.00;74.40
41220;DHT22;26951;47.338;9.196;2022-10-16T04:25:28;11.00;74.60
41220;DHT22;26951;47.338;9.196;2022-10-16T04:28:12;10.90;74.50
41220;DHT22;26951;47.338;9.196;2022-10-16T04:30:57;10.90;73.80
41220;DHT22;26951;47.338;9.196;2022-10-16T04:33:43;10.90;73.80
41220;DHT22;26951;47.338;9.196;2022-10-16T04:36:27;10.80;74.40
41220;DHT22;26951;47.338;9.196;2022-10-16T04:39:11;10.80;74.70
41220;DHT22;26951;47.338;9.196;2022-10-16T04:41:55;10.80;75.00
41220;DHT22;26951;47.338;9.196;2022-10-16T04:44:39;10.70;74.70
41220;DHT22;26951;47.338;9.196;2022-10-16T04:47:23;10.70;74.70
41220;DHT22;26951;47.338;9.196;2022-10-16T04:50:08;10.70;74.70
41220;DHT22;26951;47.338;9.196;2022-10-16T04:52:52;10.70;75.40
41220;DHT22;26951;47.338;9.196;2022-10-16T04:55:36;10.70;75.40
41220;DHT22;26951;47.338;9.196;2022-10-16T04:58:21;10.60;75.30
41220;DHT22;26951;47.338;9.196;2022-10-16T05:01:05;10.60;75.60
41220;DHT22;26951;47.338;9.196;2022-10-16T05:03:49;10.60;75.10
41220;DHT22;26951;47.338;9.196;2022-10-16T05:06:33;10.60;74.30
41220;DHT22;26951;47.338;9.196;2022-10-16T05:09:17;10.50;74.20
41220;DHT22;26951;47.338;9.196;2022-10-16T05:12:02;10.50;75.20
41220;DHT22;26951;47.338;9.196;2022-10-16T05:14:47;10.50;76.50
41220;DHT22;26951;47.338;9.196;2022-10-16T05:17:31;10.50;77.10
41220;DHT22;26951;47.338;9.196;2022-10-16T05:20:15;10.50;77.50
41220;DHT22;26951;47.338;9.196;2022-10-16T05:22:59;10.50;77.90
41220;DHT22;26951;47.338;9.196;2022-10-16T05:25:52;10.50;78.20
41220;DHT22;26951;47.338;9.196;2022-10-16T05:28:37;10.50;78.70
41220;DHT22;26951;47.338;9.196;2022-10-16T05:31:21;10.50;79.70
41220;DHT22;26951;47.338;9.196;2022-10-16T05:34:05;10.60;80.80
41220;DHT22;26951;47.338;9.196;2022-10-16T05:36:49;10.60;81.10
41220;DHT22;26951;47.338;9.196;2022-10-16T05:39:34;10.60;81.10
41220;DHT22;26951;47.338;9.196;2022-10-16T05:42:18;10.60;81.10
41220;DHT22;26951;47.338;9.196;2022-10-16T05:45:04;10.70;81.20
41220;DHT22;26951;47.338;9.196;2022-10-16T05:47:48;10.70;80.80
41220;DHT22;26951;47.338;9.196;2022-10-16T05:50:33;10.60;81.10
41220;DHT22;26951;47.338;9.196;2022-10-16T05:53:17;10.70;81.50
41220;DHT22;26951;47.338;9.196;2022-10-16T05:56:01;10.70;81.00
41220;DHT22;26951;47.338;9.196;2022-10-16T05:58:46;10.70;81.10
41220;DHT22;26951;47.338;9.196;2022-10-16T06:01:30;10.70;81.00
41220;DHT22;26951;47.338;9.196;2022-10-16T06:04:14;10.70;81.40
41220;DHT22;26951;47.338;9.196;2022-10-16T06:06:59;10.70;81.60
41220;DHT22;26951;47.338;9.196;2022-10-16T06:09:44;10.80;81.90
41220;DHT22;26951;47.338;9.196;2022-10-16T06:12:31;10.80;81.60
41220;DHT22;26951;47.338;9.196;2022-10-16T06:15:15;10.80;81.20
41220;DHT22;26951;47.338;9.196;2022-10-16T06:17:59;10.80;81.20
41220;DHT22;26951;47.338;9.196;2022-10-16T06:20:43;10.90;81.70
41220;DHT22;26951;47.338;9.196;2022-10-16T06:23:28;10.80;82.10
41220;DHT22;26951;47.338;9.196;2022-10-16T06:26:14;10.80;82.60
41220;DHT22;26951;47.338;9.196;2022-10-16T06:28:59;10.90;83.00
41220;DHT22;26951;47.338;9.196;2022-10-16T06:31:43;11.00;83.10
41220;DHT22;26951;47.338;9.196;2022-10-16T06:34:27;11.10;83.60
41220;DHT22;26951;47.338;9.196;2022-10-16T06:37:11;11.10;84.30
41220;DHT22;26951;47.338;9.196;2022-10-16T06:39:56;11.20;85.10
41220;DHT22;26951;47.338;9.196;2022-10-16T06:42:40;11.30;85.40
41220;DHT22;26951;47.338;9.196;2022-10-16T06:45:24;11.30;85.80
41220;DHT22;26951;47.338;9.196;2022-10-16T06:48:08;11.30;86.30
41220;DHT22;26951;47.338;9.196;2022-10-16T06:51:02;11.40;86.80
41220;DHT22;26951;47.338;9.196;2022-10-16T06:53:48;11.50;87.30
41220;DHT22;26951;47.338;9.196;2022-10-16T06:56:36;11.50;87.70
41220;DHT22;26951;47.338;9.196;2022-10-16T06:59:23;11.60;88.20
41220;DHT22;26951;47.338;9.196;2022-10-16T07:02:08;11.70;88.60
41220;DHT22;26951;47.338;9.196;2022-10-16T07:04:53;11.70;89.10
41220;DHT22;26951;47.338;9.196;2022-10-16T07:07:37;11.80;89.60
41220;DHT22;26951;47.338;9.196;2022-10-16T07:10:22;11.90;90.00
41220;DHT22;26951;47.338;9.196;2022-10-16T07:13:08;11.90;90.00
41220;DHT22;26951;47.338;9.196;2022-10-16T07:15:52;12.00;90.20
41220;DHT22;26951;47.338;9.196;2022-10-16T07:18:36;12.10;90.40
41220;DHT22;26951;47.338;9.196;2022-10-16T07:21:22;12.20;90.70
41220;DHT22;26951;47.338;9.196;2022-10-16T07:24:11;12.30;90.90
41220;DHT22;26951;47.338;9.196;2022-10-16T07:26:56;12.30;91.20
41220;DHT22;26951;47.338;9.196;2022-10-16T07:29:41;12.40;91.40
41220;DHT22;26951;47.338;9.196;2022-10-16T07:32:25;12.50;91.60
41220;DHT22;26951;47.338;9.196;2022-10-16T07:35:09;12.60;91.50
41220;DHT22;26951;47.338;9.196;2022-10-16T07:37:53;12.70;91.60
41220;DHT22;26951;47.338;9.196;2022-10-16T07:40:38;12.80;91.60
41220;DHT22;26951;47.338;9.196;2022-10-16T07:43:22;12.90;91.90
41220;DHT22;26951;47.338;9.196;2022-10-16T07:46:06;13.00;92.20
41220;DHT22;26951;47.338;9.196;2022-10-16T07:48:50;13.10;92.50
41220;DHT22;26951;47.338;9.196;2022-10-16T07:51:35;13.20;92.90
41220;DHT22;26951;47.338;9.196;2022-10-16T07:54:19;13.30;93.20
41220;DHT22;26951;47.338;9.196;2022-10-16T07:57:03;13.40;93.60
41220;DHT22;26951;47.338;9.196;2022-10-16T07:59:47;13.60;93.90
41220;DHT22;26951;47.338;9.196;2022-10-16T08:02:31;13.70;94.10
41220;DHT22;26951;47.338;9.196;2022-10-16T08:05:16;13.80;94.30
41220;DHT22;26951;47.338;9.196;2022-10-16T08:08:01;13.90;94.50
41220;DHT22;26951;47.338;9.196;2022-10-16T08:10:45;14.10;94.70
41220;DHT22;26951;47.338;9.196;2022-10-16T08:13:30;14.20;94.80
41220;DHT22;26951;47.338;9.196;2022-10-16T08:16:14;14.30;94.30
41220;DHT22;26951;47.338;9.196;2022-10-16T08:18:58;14.40;94.20
41220;DHT22;26951;47.338;9.196;2022-10-16T08:21:46;14.50;93.90
41220;DHT22;26951;47.338;9.196;2022-10-16T08:24:30;14.60;93.70
41220;DHT22;26951;47.338;9.196;2022-10-16T08:27:15;14.80;93.90
41220;DHT22;26951;47.338;9.196;2022-10-16T08:29:59;15.00;94.80
41220;DHT22;26951;47.338;9.196;2022-10-16T08:32:43;15.20;95.20
41220;DHT22;26951;47.338;9.196;2022-10-16T08:35:27;15.30;94.40
41220;DHT22;26951;47.338;9.196;2022-10-16T08:38:12;15.50;93.70
41220;DHT22;26951;47.338;9.196;2022-10-16T08:44:25;16.00;91.00
41220;DHT22;26951;47.338;9.196;2022-10-16T08:47:18;16.50;93.40
41220;DHT22;26951;47.338;9.196;2022-10-16T08:50:13;16.90;92.20
41220;DHT22;26951;47.338;9.196;2022-10-16T08:52:58;17.40;91.50
41220;DHT22;26951;47.338;9.196;2022-10-16T08:55:48;17.80;90.80
41220;DHT22;26951;47.338;9.196;2022-10-16T08:58:33;18.20;87.80
41220;DHT22;26951;47.338;9.196;2022-10-16T09:01:19;18.60;87.10
41220;DHT22;26951;47.338;9.196;2022-10-16T09:13:21;20.20;72.70
41220;DHT22;26951;47.338;9.196;2022-10-16T09:16:25;20.60;73.30
41220;DHT22;26951;47.338;9.196;2022-10-16T09:19:25;21.00;72.50
41220;DHT22;26951;47.338;9.196;2022-10-16T09:22:15;21.30;69.90
41220;DHT22;26951;47.338;9.196;2022-10-16T09:25:00;21.60;67.10
41220;DHT22;26951;47.338;9.196;2022-10-16T09:27:52;21.80;66.90
41220;DHT22;26951;47.338;9.196;2022-10-16T09:30:37;22.10;65.40
41220;DHT22;26951;47.338;9.196;2022-10-16T09:33:30;22.30;66.80
41220;DHT22;26951;47.338;9.196;2022-10-16T09:36:18;22.60;64.60
41220;DHT22;26951;47.338;9.196;2022-10-16T09:39:05;22.80;63.50
41220;DHT22;26951;47.338;9.196;2022-10-16T09:41:50;23.00;62.20
41220;DHT22;26951;47.338;9.196;2022-10-16T09:44:40;23.20;61.10
41220;DHT22;26951;47.338;9.196;2022-10-16T09:47:27;23.30;60.50
41220;DHT22;26951;47.338;9.196;2022-10-16T09:50:30;23.50;59.40
41220;DHT22;26951;47.338;9.196;2022-10-16T09:53:15;23.50;57.60
41220;DHT22;26951;47.338;9.196;2022-10-16T09:56:01;23.60;58.00
41220;DHT22;26951;47.338;9.196;2022-10-16T09:58:52;23.60;53.80
41220;DHT22;26951;47.338;9.196;2022-10-16T10:01:40;23.60;53.70
41220;DHT22;26951;47.338;9.196;2022-10-16T10:04:24;23.70;55.20
41220;DHT22;26951;47.338;9.196;2022-10-16T10:07:18;23.70;52.70
41220;DHT22;26951;47.338;9.196;2022-10-16T10:10:04;23.80;54.10
41220;DHT22;26951;47.338;9.196;2022-10-16T10:12:49;23.80;54.20
41220;DHT22;26951;47.338;9.196;2022-10-16T10:15:41;23.90;50.00
41220;DHT22;26951;47.338;9.196;2022-10-16T10:18:25;24.00;50.50
41220;DHT22;26951;47.338;9.196;2022-10-16T10:21:14;24.00;50.20
41220;DHT22;26951;47.338;9.196;2022-10-16T10:23:59;24.10;49.30
41220;DHT22;26951;47.338;9.196;2022-10-16T10:27:08;24.10;42.10
41220;DHT22;26951;47.338;9.196;2022-10-16T10:33:20;24.30;48.20
41220;DHT22;26951;47.338;9.196;2022-10-16T10:39:23;24.50;46.70
41220;DHT22;26951;47.338;9.196;2022-10-16T10:45:17;24.70;47.60
41220;DHT22;26951;47.338;9.196;2022-10-16T10:51:07;24.90;48.50
41220;DHT22;26951;47.338;9.196;2022-10-16T10:54:18;24.90;46.90
41220;DHT22;26951;47.338;9.196;2022-10-16T10:57:32;25.00;43.50
41220;DHT22;26951;47.338;9.196;2022-10-16T11:06:39;25.00;35.90
41220;DHT22;26951;47.338;9.196;2022-10-16T11:09:36;25.00;37.20
41220;DHT22;26951;47.338;9.196;2022-10-16T11:12:29;25.00;43.20
41220;DHT22;26951;47.338;9.196;2022-10-16T11:18:06;25.10;39.40
41220;DHT22;26951;47.338;9.196;2022-10-16T11:20:59;25.20;42.20
41220;DHT22;26951;47.338;9.196;2022-10-16T11:23:56;25.30;42.10
41220;DHT22;26951;47.338;9.196;2022-10-16T11:26:43;25.40;43.00
41220;DHT22;26951;47.338;9.196;2022-10-16T11:29:31;25.40;39.20
41220;DHT22;26951;47.338;9.196;2022-10-16T11:32:28;25.50;42.10
41220;DHT22;26951;47.338;9.196;2022-10-16T11:35:21;25.60;36.80
41220;DHT22;26951;47.338;9.196;2022-10-16T11:38:14;25.60;39.70
41220;DHT22;26951;47.338;9.196;2022-10-16T11:41:10;25.60;39.50
41220;DHT22;26951;47.338;9.196;2022-10-16T11:47:34;25.70;35.50
41220;DHT22;26951;47.338;9.196;2022-10-16T11:50:24;25.70;35.10
41220;DHT22;26951;47.338;9.196;2022-10-16T11:56:16;25.60;32.90
41220;DHT22;26951;47.338;9.196;2022-10-16T11:59:26;25.70;37.20
41220;DHT22;26951;47.338;9.196;2022-10-16T12:02:31;25.70;36.50
41220;DHT22;26951;47.338;9.196;2022-10-16T12:08:15;25.80;37.10
41220;DHT22;26951;47.338;9.196;2022-10-16T12:11:54;25.90;37.30
41220;DHT22;26951;47.338;9.196;2022-10-16T12:17:43;26.00;34.60
41220;DHT22;26951;47.338;9.196;2022-10-16T12:23:04;26.10;34.80
41220;DHT22;26951;47.338;9.196;2022-10-16T12:25:55;26.20;33.80
41220;DHT22;26951;47.338;9.196;2022-10-16T12:28:39;26.20;34.50
41220;DHT22;26951;47.338;9.196;2022-10-16T12:31:24;26.30;35.40
41220;DHT22;26951;47.338;9.196;2022-10-16T12:34:37;26.30;35.30
41220;DHT22;26951;47.338;9.196;2022-10-16T12:37:36;26.20;37.20
41220;DHT22;26951;47.338;9.196;2022-10-16T12:40:33;26.10;36.00
41220;DHT22;26951;47.338;9.196;2022-10-16T12:51:57;25.90;38.90
41220;DHT22;26951;47.338;9.196;2022-10-16T12:54:42;25.80;39.60
41220;DHT22;26951;47.338;9.196;2022-10-16T13:00:45;25.50;41.00
41220;DHT22;26951;47.338;9.196;2022-10-16T13:07:14;25.20;41.20
41220;DHT22;26951;47.338;9.196;2022-10-16T13:22:24;24.20;43.30
41220;DHT22;26951;47.338;9.196;2022-10-16T13:28:34;23.90;43.70
41220;DHT22;26951;47.338;9.196;2022-10-16T13:31:24;23.70;44.10
41220;DHT22;26951;47.338;9.196;2022-10-16T13:34:15;23.60;45.00
41220;DHT22;26951;47.338;9.196;2022-10-16T13:37:00;23.50;44.70
41220;DHT22;26951;47.338;9.196;2022-10-16T13:39:44;23.30;44.50
41220;DHT22;26951;47.338;9.196;2022-10-16T13:42:29;23.20;44.20
41220;DHT22;26951;47.338;9.196;2022-10-16T13:48:03;23.00;46.00
41220;DHT22;26951;47.338;9.196;2022-10-16T13:53:45;22.90;45.30
41220;DHT22;26951;47.338;9.196;2022-10-16T13:56:32;22.80;45.30
41220;DHT22;26951;47.338;9.196;2022-10-16T13:59:37;22.80;46.30
41220;DHT22;26951;47.338;9.196;2022-10-16T14:02:29;22.80;46.00
41220;DHT22;26951;47.338;9.196;2022-10-16T14:05:15;22.80;45.00
41220;DHT22;26951;47.338;9.196;2022-10-16T14:08:00;22.80;44.90
41220;DHT22;26951;47.338;9.196;2022-10-16T14:10:49;22.80;44.70
41220;DHT22;26951;47.338;9.196;2022-10-16T14:13:39;22.80;45.00
41220;DHT22;26951;47.338;9.196;2022-10-16T14:16:30;22.80;45.30
41220;DHT22;26951;47.338;9.196;2022-10-16T14:19:26;22.80;45.60
41220;DHT22;26951;47.338;9.196;2022-10-16T14:22:39;22.70;45.20
41220;DHT22;26951;47.338;9.196;2022-10-16T14:25:29;22.70;43.90
41220;DHT22;26951;47.338;9.196;2022-10-16T14:28:14;22.60;44.10
41220;DHT22;26951;47.338;9.196;2022-10-16T14:31:01;22.60;44.30
41220;DHT22;26951;47.338;9.196;2022-10-16T14:33:45;22.70;43.90
41220;DHT22;26951;47.338;9.196;2022-10-16T14:36:30;22.70;43.80
41220;DHT22;26951;47.338;9.196;2022-10-16T14:39:19;22.80;43.70
41220;DHT22;26951;47.338;9.196;2022-10-16T14:42:04;22.80;43.60
41220;DHT22;26951;47.338;9.196;2022-10-16T14:44:48;22.90;43.50
41220;DHT22;26951;47.338;9.196;2022-10-16T14:47:38;23.00;43.90
41220;DHT22;26951;47.338;9.196;2022-10-16T14:50:31;23.00;44.30
41220;DHT22;26951;47.338;9.196;2022-10-16T14:53:15;23.00;44.10
41220;DHT22;26951;47.338;9.196;2022-10-16T14:56:06;22.90;42.80
41220;DHT22;26951;47.338;9.196;2022-10-16T14:58:52;22.90;42.80
41220;DHT22;26951;47.338;9.196;2022-10-16T15:01:36;23.00;43.90
41220;DHT22;26951;47.338;9.196;2022-10-16T15:04:20;22.90;40.30
41220;DHT22;26951;47.338;9.196;2022-10-16T15:07:04;22.90;42.10
41220;DHT22;26951;47.338;9.196;2022-10-16T15:09:49;22.80;44.00
41220;DHT22;26951;47.338;9.196;2022-10-16T15:12:33;22.70;44.30
41220;DHT22;26951;47.338;9.196;2022-10-16T15:15:28;22.60;42.60
41220;DHT22;26951;47.338;9.196;2022-10-16T15:18:15;22.50;44.50
41220;DHT22;26951;47.338;9.196;2022-10-16T15:21:04;22.30;44.80
41220;DHT22;26951;47.338;9.196;2022-10-16T15:23:49;22.10;45.40
41220;DHT22;26951;47.338;9.196;2022-10-16T15:26:34;21.90;46.90
41220;DHT22;26951;47.338;9.196;2022-10-16T15:29:18;21.70;46.40
41220;DHT22;26951;47.338;9.196;2022-10-16T15:32:02;21.50;47.70
41220;DHT22;26951;47.338;9.196;2022-10-16T15:34:46;21.40;48.00
41220;DHT22;26951;47.338;9.196;2022-10-16T15:37:30;21.20;48.50
41220;DHT22;26951;47.338;9.196;2022-10-16T15:40:16;21.10;48.90
41220;DHT22;26951;47.338;9.196;2022-10-16T15:43:00;20.90;49.30
41220;DHT22;26951;47.338;9.196;2022-10-16T15:46:05;20.70;49.80
41220;DHT22;26951;47.338;9.196;2022-10-16T15:48:50;20.60;50.40
41220;DHT22;26951;47.338;9.196;2022-10-16T15:51:38;20.40;50.50
41220;DHT22;26951;47.338;9.196;2022-10-16T15:54:23;20.20;50.50
41220;DHT22;26951;47.338;9.196;2022-10-16T15:57:07;20.10;50.80
41220;DHT22;26951;47.338;9.196;2022-10-16T15:59:51;20.00;51.00
41220;DHT22;26951;47.338;9.196;2022-10-16T16:02:35;19.80;51.10
41220;DHT22;26951;47.338;9.196;2022-10-16T16:05:21;19.70;51.50
41220;DHT22;26951;47.338;9.196;2022-10-16T16:08:05;19.50;51.50
41220;DHT22;26951;47.338;9.196;2022-10-16T16:10:59;19.40;51.70
41220;DHT22;26951;47.338;9.196;2022-10-16T16:13:44;19.20;51.50
41220;DHT22;26951;47.338;9.196;2022-10-16T16:16:28;19.10;51.80
41220;DHT22;26951;47.338;9.196;2022-10-16T16:19:12;19.00;52.00
41220;DHT22;26951;47.338;9.196;2022-10-16T16:21:57;18.80;51.70
41220;DHT22;26951;47.338;9.196;2022-10-16T16:24:41;18.60;52.20
41220;DHT22;26951;47.338;9.196;2022-10-16T16:27:25;18.50;52.40
41220;DHT22;26951;47.338;9.196;2022-10-16T16:30:11;18.30;52.10
41220;DHT22;26951;47.338;9.196;2022-10-16T16:32:55;18.20;51.60
41220;DHT22;26951;47.338;9.196;2022-10-16T16:35:39;18.00;52.00
41220;DHT22;26951;47.338;9.196;2022-10-16T16:38:23;17.80;52.50
41220;DHT22;26951;47.338;9.196;2022-10-16T16:41:19;17.70;53.20
41220;DHT22;26951;47.338;9.196;2022-10-16T16:44:05;17.60;53.50
41220;DHT22;26951;47.338;9.196;2022-10-16T16:46:49;17.50;53.40
41220;DHT22;26951;47.338;9.196;2022-10-16T16:49:34;17.30;52.90
41220;DHT22;26951;47.338;9.196;2022-10-16T16:52:18;17.10;52.70
41220;DHT22;26951;47.338;9.196;2022-10-16T16:55:03;16.90;52.90
41220;DHT22;26951;47.338;9.196;2022-10-16T16:57:50;16.80;52.80
41220;DHT22;26951;47.338;9.196;2022-10-16T17:00:34;16.70;52.70
41220;DHT22;26951;47.338;9.196;2022-10-16T17:03:18;16.50;53.90
41220;DHT22;26951;47.338;9.196;2022-10-16T17:06:07;16.30;53.80
41220;DHT22;26951;47.338;9.196;2022-10-16T17:08:52;16.20;54.20
41220;DHT22;26951;47.338;9.196;2022-10-16T17:11:36;16.00;54.20
41220;DHT22;26951;47.338;9.196;2022-10-16T17:14:20;15.90;54.70
41220;DHT22;26951;47.338;9.196;2022-10-16T17:17:04;15.80;55.40
41220;DHT22;26951;47.338;9.196;2022-10-16T17:19:51;15.70;56.10
41220;DHT22;26951;47.338;9.196;2022-10-16T17:22:36;15.60;55.70
41220;DHT22;26951;47.338;9.196;2022-10-16T17:25:20;15.60;55.50
41220;DHT22;26951;47.338;9.196;2022-10-16T17:28:05;15.50;55.30
41220;DHT22;26951;47.338;9.196;2022-10-16T17:30:49;15.40;55.70
41220;DHT22;26951;47.338;9.196;2022-10-16T17:33:33;15.40;56.30
41220;DHT22;26951;47.338;9.196;2022-10-16T17:36:19;15.30;56.40
41220;DHT22;26951;47.338;9.196;2022-10-16T17:39:06;15.20;57.10
41220;DHT22;26951;47.338;9.196;2022-10-16T17:41:51;15.10;56.30
41220;DHT22;26951;47.338;9.196;2022-10-16T17:44:35;15.00;56.40
41220;DHT22;26951;47.338;9.196;2022-10-16T17:47:19;14.90;56.60
41220;DHT22;26951;47.338;9.196;2022-10-16T17:50:03;14.80;57.10
41220;DHT22;26951;47.338;9.196;2022-10-16T17:52:48;14.80;57.20
41220;DHT22;26951;47.338;9.196;2022-10-16T17:55:40;14.70;56.70
41220;DHT22;26951;47.338;9.196;2022-10-16T17:58:24;14.60;57.40
41220;DHT22;26951;47.338;9.196;2022-10-16T18:03:58;14.50;57.20
41220;DHT22;26951;47.338;9.196;2022-10-16T18:06:44;14.40;57.40
41220;DHT22;26951;47.338;9.196;2022-10-16T18:09:28;14.40;57.40
41220;DHT22;26951;47.338;9.196;2022-10-16T18:12:13;14.40;57.60
41220;DHT22;26951;47.338;9.196;2022-10-16T18:14:57;14.30;57.90
41220;DHT22;26951;47.338;9.196;2022-10-16T18:17:42;14.20;58.80
41220;DHT22;26951;47.338;9.196;2022-10-16T18:20:26;14.20;59.50
41220;DHT22;26951;47.338;9.196;2022-10-16T18:23:10;14.10;59.00
41220;DHT22;26951;47.338;9.196;2022-10-16T18:25:55;14.00;58.30
41220;DHT22;26951;47.338;9.196;2022-10-16T18:28:39;14.00;57.10
41220;DHT22;26951;47.338;9.196;2022-10-16T18:31:24;13.90;56.60
41220;DHT22;26951;47.338;9.196;2022-10-16T18:34:11;13.80;57.10
41220;DHT22;26951;47.338;9.196;2022-10-16T18:36:55;13.70;59.90
41220;DHT22;26951;47.338;9.196;2022-10-16T18:39:40;13.60;60.90
41220;DHT22;26951;47.338;9.196;2022-10-16T18:42:24;13.60;62.20
41220;DHT22;26951;47.338;9.196;2022-10-16T18:45:08;13.60;61.30
41220;DHT22;26951;47.338;9.196;2022-10-16T18:47:52;13.50;59.80
41220;DHT22;26951;47.338;9.196;2022-10-16T18:50:37;13.50;60.60
41220;DHT22;26951;47.338;9.196;2022-10-16T18:53:21;13.50;60.10
41220;DHT22;26951;47.338;9.196;2022-10-16T18:56:05;13.40;60.20
41220;DHT22;26951;47.338;9.196;2022-10-16T18:58:51;13.30;62.20
41220;DHT22;26951;47.338;9.196;2022-10-16T19:01:37;13.20;64.60
41220;DHT22;26951;47.338;9.196;2022-10-16T19:04:21;13.30;65.00
41220;DHT22;26951;47.338;9.196;2022-10-16T19:07:06;13.30;64.20
41220;DHT22;26951;47.338;9.196;2022-10-16T19:09:51;13.30;62.90
41220;DHT22;26951;47.338;9.196;2022-10-16T19:12:35;13.20;62.40
41220;DHT22;26951;47.338;9.196;2022-10-16T19:15:19;13.20;61.70
41220;DHT22;26951;47.338;9.196;2022-10-16T19:18:05;13.20;61.60